Sebastopol, CA

4:15 AM PST on December 21, 2014 (GMT -0800)
Thorn Ridge | Change Station
CLOSE
Current Station
Personal Weather Station
Location: Sebastopol, CA
Elevation: 605 ft
Nearby Weather Stations
Active Advisory: Coastal Flood Advisory

Elev 605 ft 38.36 °N, 122.85 °W | Updated 7 days ago

Rain
Rain
54 °F
Feels Like 54 °F
N
3
Wind Variable Wind from West
Gusts 4 mph

Today
High -- | Low -- °F
--% Chance of Precip.
Yesterday
High -- | Low -- °F
Precip. -- in
7:24 AM 4:54 PM
Waning Crescent, 0% visible
Pressure 30.22 in
Visibility 1.5 miles
Clouds Overcast 500 ft
Dew Point 54 °F
Humidity 100%
Rainfall 0.00 in
Snow Depth Not available.
UV 0 out of 12
Pollen 4.00 out of 12
Air Quality Not available.
Flu Activity Not available.
METAR KSTS 211153Z AUTO 00000KT 1 1/2SM BR OVC005 13/13 A3024 RMK AO2 RAE00 SLP234 P0000 60001 70034 T01280128 10133 20128 58001

More Conditions Fewer Conditions

Pressure 30.22 in
Visibility 1.5 miles
Clouds Overcast 500 ft
Dew Point 54 °F
Humidity 100%
Rainfall 0.00 in
Snow Depth Not available.
UV 0 out of 12
Pollen 4.00 out of 12
Air Quality Not available.
Flu Activity Not available.
METAR KSTS 211153Z AUTO 00000KT 1 1/2SM BR OVC005 13/13 A3024 RMK AO2 RAE00 SLP234 P0000 60001 70034 T01280128 10133 20128 58001

More Conditions Fewer Conditions

10-Day Weather Forecast

Almanac

Astronomy

Dec. 21, 2014 Rise Set
Actual Time
Civil Twilight
Nautical Twilight
Astronomical Twilight
Moon
Length of Visible Light
Length of Day
Tomorrow will be .
, % of the Moon is Illuminated

Today's Extremes

State Highs State Lows

Community

WunderPhotos

Upload Photos

1,779,371 photos uploaded!

WunderBlogs® & News

Nearby

Air Quality

  Air Quality AQ Index Pollutant
Not available.

Snow Depth

Station Depth Elevation

Earthquake Activity

City Distance Mag. Time & Date
Minimum magnitude displayed is 2.5.

Coastal Water Temperatures

Place Temperature

Nearby Weather Stations